Airfield :
LOGIN :

Register | Disclaimer

   EN    FR    IT 

 










Legend :    VFR   Marginal VFR   IFR   Intensive IFR   Very Intensive IFR
Visi :
Ceiling :
>= 8 km
>= 3000ft
5 to 8 km
1000 to 3000 ft
1500m to 5 km
500 to 1000 ft
800 to 1500m
200 to 500 ft
< 800m
< 200 ft
Symbols :   Thunderstorms  Fog  Heavy snow  Heavy precipitations  Wind > 20 kt
SIGMETs :     Misc.  Thunderstorms  Icing  Turbulence  Mountain Waves  Volcanic Ashes







- Airport Elevation : 935 ft


EBFS - Florennes

CURRENT METAR :
  • 131225Z 19012KT 9999 SCT006 BKN008 03/02 Q1001 YLO YLO

EXPIRED METARs :
  • 131155Z 19016KT 8000 -RASN SCT006 BKN008 02/01 Q1002 YLO YLO
  • 131136Z 19018KT 6000 -RASN SCT006 BKN008 02/01 Q1002 YLO YLO
  • 131123Z 20017KT 6000 RASN SCT006 BKN008 02/01 Q1002 YLO YLO
  • 131055Z 19017KT 5000 -RASN SCT006 BKN008 02/01 Q1002 YLO YLO
  • 131033Z 19018KT 5000 -RASN SCT006 BKN008 02/01 Q1003 YLO YLO
  • 131010Z 20018KT 7000 RASN SCT006 BKN008 02/01 Q1004 YLO YLO
  • 130955Z 19016KT 7000 -RA SCT006 BKN008 03/01 Q1004 YLO YLO

TAF TAF EBFS
Valid from the 13 at 13:00 until the 13 at 22:00 UTC


131141Z 1313/1322 20025G35KT 4000 -RASN SCT005 BKN007
TEMPO 1315/1321 2000 +RA SCT002 BKN004
No reported NOTAMs for that airfield.



MET'MAP, your aeronautical weather chart ! - Copyright ORBIFLY December 2007 - Disclaimer

ORBIFLY MET'MAP TEAM :

Programming & Development : Alexandra Zaïnal
Concept & Development : Baudouin d'Aumeries
Co-Development & Prog : Marc-Olivier Méhu
Technical & hardware support : Manuel Goepfert

Contact : metmap@orbifly.com




SOURCES & CREDITS :

   NOAA